createdAt,value
2022-08-17T00:02:05.801Z,4.60
2022-08-17T00:04:51.203Z,4.30
2022-08-17T00:07:17.709Z,4.40
2022-08-17T00:09:44.266Z,3.90
2022-08-17T00:12:43.611Z,4.45
2022-08-17T00:14:57.414Z,4.07
2022-08-17T00:17:23.942Z,4.28
2022-08-17T00:19:50.423Z,4.20
2022-08-17T00:22:34.758Z,4.10
2022-08-17T00:25:09.616Z,4.45
2022-08-17T00:27:36.981Z,4.25
2022-08-17T00:30:06.960Z,4.00
2022-08-17T00:33:12.041Z,4.35
2022-08-17T00:35:29.144Z,4.30
2022-08-17T00:37:55.851Z,4.32
2022-08-17T00:40:24.743Z,3.97
2022-08-17T00:42:53.410Z,4.65
2022-08-17T00:45:20.615Z,4.07
2022-08-17T00:47:47.745Z,4.05
2022-08-17T00:50:19.059Z,4.57
2022-08-17T00:52:52.498Z,4.03
2022-08-17T00:55:20.481Z,3.65
2022-08-17T00:57:53.459Z,3.92
2022-08-17T01:00:29.912Z,4.63
2022-08-17T01:03:03.390Z,4.03
2022-08-17T01:05:32.539Z,3.97
2022-08-17T01:08:00.933Z,3.95
2022-08-17T01:11:00.628Z,4.22
2022-08-17T01:13:23.447Z,4.30
2022-08-17T01:16:01.161Z,4.10
2022-08-17T01:18:28.225Z,4.13
2022-08-17T01:20:57.626Z,4.40
2022-08-17T01:23:25.656Z,4.68
2022-08-17T01:25:57.751Z,4.35
2022-08-17T01:28:52.688Z,4.35
2022-08-17T01:31:16.509Z,4.50
2022-08-17T01:33:43.284Z,4.35
2022-08-17T01:36:10.057Z,4.18
2022-08-17T01:38:38.079Z,4.35
2022-08-17T01:41:12.500Z,4.45
2022-08-17T01:43:50.979Z,4.40
2022-08-17T01:46:24.224Z,4.40
2022-08-17T01:48:51.414Z,4.35
2022-08-17T01:51:19.127Z,4.60
2022-08-17T01:53:51.926Z,4.70
2022-08-17T01:56:21.516Z,4.70
2022-08-17T01:58:48.470Z,4.70
2022-08-17T02:01:22.618Z,4.43
2022-08-17T02:03:54.541Z,4.45
2022-08-17T02:06:30.464Z,4.72
2022-08-17T02:09:02.652Z,4.10
2022-08-17T02:11:32.295Z,4.40
2022-08-17T02:14:02.525Z,4.38
2022-08-17T02:16:37.575Z,4.82
2022-08-17T02:19:15.605Z,4.43
2022-08-17T02:21:45.154Z,4.75
2022-08-17T02:24:17.717Z,4.38
2022-08-17T02:27:04.986Z,4.47
2022-08-17T02:29:31.554Z,4.53
2022-08-17T02:31:58.606Z,4.85
2022-08-17T02:34:25.724Z,5.32
2022-08-17T02:36:53.417Z,4.38
2022-08-17T02:39:20.269Z,5.10
2022-08-17T02:41:46.862Z,4.93
2022-08-17T02:44:13.608Z,4.82
2022-08-17T02:47:00.669Z,4.57
2022-08-17T02:49:27.165Z,4.55
2022-08-17T02:51:53.714Z,4.55
2022-08-17T02:54:41.083Z,4.20
2022-08-17T02:57:06.933Z,5.00
2022-08-17T02:59:33.467Z,4.57
2022-08-17T03:02:00.039Z,4.72
2022-08-17T03:04:26.570Z,4.57
2022-08-17T03:06:53.135Z,4.75
2022-08-17T03:09:19.673Z,4.47
2022-08-17T03:11:46.197Z,5.43
2022-08-17T03:14:13.130Z,4.40
2022-08-17T03:16:40.825Z,4.40
2022-08-17T03:19:09.003Z,4.85
2022-08-17T03:21:36.362Z,4.72
2022-08-17T03:24:08.772Z,4.63
2022-08-17T03:26:35.776Z,4.50
2022-08-17T03:29:02.323Z,4.70
2022-08-17T03:31:28.888Z,5.28
2022-08-17T03:33:56.249Z,4.30
2022-08-17T03:36:22.801Z,4.78
2022-08-17T03:38:49.372Z,5.07
2022-08-17T03:41:17.830Z,4.75
2022-08-17T03:43:44.352Z,4.80
2022-08-17T03:46:34.409Z,4.38
2022-08-17T03:49:23.738Z,5.00
2022-08-17T03:52:08.671Z,5.22
2022-08-17T03:54:53.794Z,5.07
2022-08-17T03:57:20.337Z,5.20
2022-08-17T03:59:47.664Z,5.10
2022-08-17T04:02:20.721Z,5.00
2022-08-17T04:04:51.010Z,4.60
2022-08-17T04:07:22.406Z,5.65
2022-08-17T04:09:49.298Z,4.70
2022-08-17T04:12:18.878Z,5.22
2022-08-17T04:14:52.909Z,5.13
2022-08-17T04:17:22.750Z,4.90
2022-08-17T04:19:49.271Z,5.80
2022-08-17T04:22:30.132Z,5.75
2022-08-17T04:25:04.817Z,4.88
2022-08-17T04:27:31.795Z,5.25
2022-08-17T04:29:58.695Z,5.25
2022-08-17T04:33:04.386Z,4.68
2022-08-17T04:35:11.919Z,5.57
2022-08-17T04:37:38.407Z,5.25
2022-08-17T04:40:27.167Z,5.30
2022-08-17T04:43:05.675Z,5.15
2022-08-17T04:45:32.783Z,4.85
2022-08-17T04:48:00.745Z,5.97
2022-08-17T04:50:27.558Z,5.50
2022-08-17T04:52:56.027Z,6.03
2022-08-17T04:55:22.746Z,5.50
2022-08-17T04:57:49.321Z,5.32
2022-08-17T05:00:15.892Z,5.95
2022-08-17T05:02:49.769Z,5.95
2022-08-17T05:05:26.608Z,5.68
2022-08-17T05:08:00.059Z,5.75
2022-08-17T05:10:30.017Z,5.72
2022-08-17T05:13:08.721Z,5.10
2022-08-17T05:15:39.407Z,5.90
2022-08-17T05:18:11.881Z,5.72
2022-08-17T05:20:40.104Z,5.95
2022-08-17T05:23:10.630Z,6.35
2022-08-17T05:25:41.088Z,5.97
2022-08-17T05:28:08.746Z,5.78
2022-08-17T05:30:38.201Z,5.47
2022-08-17T05:33:08.134Z,5.90
2022-08-17T05:35:37.632Z,5.20
2022-08-17T05:38:05.138Z,5.93
2022-08-17T05:40:32.822Z,6.05
2022-08-17T05:43:30.619Z,6.10
2022-08-17T05:46:10.762Z,5.57
2022-08-17T05:48:44.653Z,5.95
2022-08-17T05:51:41.951Z,5.43
2022-08-17T05:54:14.085Z,5.10
2022-08-17T05:56:43.358Z,5.70
2022-08-17T05:59:16.607Z,5.53
2022-08-17T06:02:06.320Z,5.10
2022-08-17T06:04:58.822Z,5.03
2022-08-17T06:07:36.411Z,5.55
2022-08-17T06:10:39.449Z,5.78
2022-08-17T06:13:43.198Z,5.15
2022-08-17T06:16:25.933Z,5.00
2022-08-17T06:19:06.217Z,5.13
2022-08-17T06:21:40.950Z,5.15
2022-08-17T06:24:26.298Z,5.03
2022-08-17T06:26:55.632Z,5.93
2022-08-17T06:29:46.304Z,5.53
2022-08-17T06:32:14.700Z,6.55
2022-08-17T06:34:43.662Z,5.20
2022-08-17T06:37:22.008Z,5.18
2022-08-17T06:40:33.732Z,4.70
2022-08-17T06:43:32.671Z,5.22
2022-08-17T06:46:06.284Z,5.78
2022-08-17T06:49:11.572Z,6.10
2022-08-17T06:51:46.399Z,7.60
2022-08-17T06:54:16.877Z,5.57
2022-08-17T06:56:55.312Z,5.88
2022-08-17T06:59:54.263Z,5.15
2022-08-17T07:02:29.480Z,4.88
2022-08-17T07:05:17.016Z,4.68
2022-08-17T07:08:09.248Z,5.30
2022-08-17T07:10:52.743Z,5.07
2022-08-17T07:13:41.900Z,5.60
2022-08-17T07:16:27.985Z,5.10
2022-08-17T07:18:57.230Z,5.55
2022-08-17T07:21:47.551Z,4.75
2022-08-17T07:24:39.521Z,4.13
2022-08-17T07:27:27.962Z,5.53
2022-08-17T07:29:58.874Z,5.15
2022-08-17T07:32:32.514Z,4.70
2022-08-17T07:35:22.057Z,4.30
2022-08-17T07:38:25.068Z,3.92
2022-08-17T07:41:02.533Z,4.32
2022-08-17T07:43:31.157Z,4.82
2022-08-17T07:46:37.668Z,3.88
2022-08-17T07:49:05.047Z,4.97
2022-08-17T07:51:32.701Z,4.85
2022-08-17T07:54:14.362Z,4.03
2022-08-17T07:56:53.784Z,4.00
2022-08-17T07:59:23.654Z,4.20
2022-08-17T08:01:57.924Z,4.30
2022-08-17T08:07:16.352Z,3.35
2022-08-17T08:09:46.929Z,3.60
2022-08-17T08:12:34.032Z,3.72
2022-08-17T08:15:15.261Z,3.95
2022-08-17T08:17:57.518Z,4.05
2022-08-17T08:20:51.678Z,3.70
2022-08-17T08:23:39.232Z,3.25
2022-08-17T08:26:20.294Z,3.30
2022-08-17T08:29:01.587Z,3.70
2022-08-17T08:31:46.129Z,3.47
2022-08-17T08:35:00.800Z,2.90
2022-08-17T08:37:33.730Z,2.97
2022-08-17T08:40:15.781Z,3.05
2022-08-17T08:43:08.831Z,2.50
2022-08-17T08:46:19.819Z,3.30
2022-08-17T08:49:18.656Z,3.33
2022-08-17T08:52:03.829Z,2.80
2022-08-17T08:54:45.813Z,3.22
2022-08-17T08:57:30.985Z,2.83
2022-08-17T09:00:18.898Z,2.97
2022-08-17T09:03:09.828Z,3.17
2022-08-17T09:05:56.220Z,3.30
2022-08-17T09:08:50.465Z,3.15
2022-08-17T09:11:24.516Z,2.75
2022-08-17T09:13:58.871Z,2.47
2022-08-17T09:16:30.842Z,2.25
2022-08-17T09:19:05.004Z,2.83
2022-08-17T09:21:48.675Z,3.35
2022-08-17T09:24:34.210Z,2.35
2022-08-17T09:27:11.254Z,2.65
2022-08-17T09:29:43.022Z,2.30
2022-08-17T09:32:28.435Z,2.78
2022-08-17T09:35:01.907Z,2.55
2022-08-17T09:37:53.105Z,2.45
2022-08-17T09:40:27.196Z,2.50
2022-08-17T09:43:11.500Z,2.50
2022-08-17T09:45:50.734Z,2.38
2022-08-17T09:48:25.010Z,2.40
2022-08-17T09:51:07.062Z,2.58
2022-08-17T09:53:37.140Z,2.50
2022-08-17T09:56:17.087Z,2.28
2022-08-17T09:59:08.307Z,2.33
2022-08-17T10:01:39.863Z,1.90
2022-08-17T10:04:40.881Z,2.22
2022-08-17T10:07:15.229Z,2.50
2022-08-17T10:10:07.768Z,2.40
2022-08-17T10:13:03.197Z,2.00
2022-08-17T10:15:53.303Z,2.35
2022-08-17T10:18:22.763Z,2.60
2022-08-17T10:21:23.403Z,2.30
2022-08-17T10:24:15.161Z,2.40
2022-08-17T10:26:56.142Z,2.35
2022-08-17T10:29:48.655Z,2.47
2022-08-17T10:32:40.784Z,2.08
2022-08-17T10:35:31.288Z,2.50
2022-08-17T10:38:28.947Z,2.17
2022-08-17T10:41:05.859Z,2.50
2022-08-17T10:44:36.967Z,2.40
2022-08-17T10:47:09.519Z,1.98
2022-08-17T10:49:38.425Z,1.67
2022-08-17T10:52:19.974Z,2.08
2022-08-17T10:55:06.645Z,2.10
2022-08-17T10:57:37.464Z,2.15
2022-08-17T11:00:17.084Z,1.92
2022-08-17T11:02:53.461Z,1.70
2022-08-17T11:05:44.205Z,2.55
2022-08-17T11:08:26.149Z,2.47
2022-08-17T11:10:52.626Z,1.95
2022-08-17T11:13:33.246Z,1.90
2022-08-17T11:16:35.100Z,1.80
2022-08-17T11:19:39.071Z,1.88
2022-08-17T11:22:50.484Z,1.80
2022-08-17T11:25:33.686Z,2.38
2022-08-17T11:28:15.564Z,2.60
2022-08-17T11:30:51.430Z,2.03
2022-08-17T11:33:29.959Z,2.08
2022-08-17T11:36:18.635Z,1.95
2022-08-17T11:39:22.311Z,1.77
2022-08-17T11:41:55.023Z,1.70
2022-08-17T11:44:57.850Z,1.90
2022-08-17T11:48:26.513Z,1.90
2022-08-17T11:51:19.288Z,2.03
2022-08-17T11:53:45.944Z,2.08
2022-08-17T11:56:41.092Z,1.90
2022-08-17T11:59:44.874Z,1.75
2022-08-17T12:02:47.526Z,1.88
2022-08-17T12:05:17.517Z,1.65
2022-08-17T12:07:56.819Z,4.88
2022-08-17T12:10:31.919Z,11.38
2022-08-17T12:13:01.845Z,1.58
2022-08-17T12:15:37.385Z,1.92
2022-08-17T12:18:04.173Z,1.38
2022-08-17T12:20:40.234Z,2.20
2022-08-17T12:23:24.283Z,6.25
2022-08-17T12:26:00.916Z,1.52
2022-08-17T12:28:31.053Z,1.23
2022-08-17T12:31:05.911Z,1.77
2022-08-17T12:33:35.470Z,1.77
2022-08-17T12:36:06.322Z,2.10
2022-08-17T12:38:35.983Z,2.00
2022-08-17T12:41:24.403Z,1.65
2022-08-17T12:43:58.650Z,1.42
2022-08-17T12:46:25.175Z,1.50
2022-08-17T12:48:59.061Z,1.67
2022-08-17T12:51:27.565Z,1.75
2022-08-17T12:53:55.462Z,1.70
2022-08-17T12:56:21.986Z,1.83
2022-08-17T12:58:55.547Z,1.80
2022-08-17T13:01:24.910Z,1.60
2022-08-17T13:03:55.126Z,2.08
2022-08-17T13:06:34.128Z,2.15
2022-08-17T13:09:12.109Z,2.58
2022-08-17T13:11:55.121Z,1.80
2022-08-17T13:14:21.767Z,2.30
2022-08-17T13:16:59.433Z,1.90
2022-08-17T13:19:40.320Z,1.50
2022-08-17T13:22:12.418Z,1.70
2022-08-17T13:24:53.125Z,2.10
2022-08-17T13:27:22.003Z,1.75
2022-08-17T13:29:57.476Z,1.83
2022-08-17T13:32:44.137Z,1.48
2022-08-17T13:35:39.903Z,1.50
2022-08-17T13:38:14.249Z,1.77
2022-08-17T13:40:50.674Z,1.35
2022-08-17T13:43:48.487Z,1.17
2022-08-17T13:46:21.737Z,1.50
2022-08-17T13:48:58.509Z,1.60
2022-08-17T13:51:54.198Z,1.55
2022-08-17T13:54:32.269Z,1.90
2022-08-17T13:57:06.630Z,1.35
2022-08-17T13:59:55.249Z,1.45
2022-08-17T14:02:27.513Z,1.48
2022-08-17T14:04:56.625Z,1.80
2022-08-17T14:07:33.895Z,1.42
2022-08-17T14:10:09.252Z,1.70
2022-08-17T14:12:38.962Z,1.80
2022-08-17T14:15:06.449Z,2.13
2022-08-17T14:17:38.135Z,1.65
2022-08-17T14:20:09.181Z,1.48
2022-08-17T14:22:38.888Z,1.42
2022-08-17T14:25:10.312Z,1.50
2022-08-17T14:27:51.904Z,1.50
2022-08-17T14:30:20.055Z,1.80
2022-08-17T14:32:48.966Z,1.83
2022-08-17T14:35:16.132Z,1.65
2022-08-17T14:37:45.596Z,1.95
2022-08-17T14:40:13.972Z,1.45
2022-08-17T14:42:43.317Z,1.77
2022-08-17T14:45:29.957Z,1.70
2022-08-17T14:47:59.318Z,1.80
2022-08-17T14:50:27.070Z,1.65
2022-08-17T14:52:55.997Z,1.70
2022-08-17T14:55:24.800Z,2.20
2022-08-17T14:57:51.449Z,2.03
2022-08-17T15:00:18.445Z,2.22
2022-08-17T15:02:49.063Z,1.73
2022-08-17T15:05:17.113Z,2.08
2022-08-17T15:07:44.526Z,2.10
2022-08-17T15:10:13.529Z,1.98
2022-08-17T15:12:41.070Z,1.80
2022-08-17T15:15:10.031Z,1.77
2022-08-17T15:17:43.858Z,2.05
2022-08-17T15:20:19.055Z,3.22
2022-08-17T15:22:49.753Z,1.92
2022-08-17T15:25:17.683Z,2.03
2022-08-17T15:27:44.275Z,1.80
2022-08-17T15:30:11.809Z,1.80
2022-08-17T15:32:41.081Z,2.20
2022-08-17T15:35:18.411Z,2.00
2022-08-17T15:37:45.373Z,3.40
2022-08-17T15:40:13.052Z,2.30
2022-08-17T15:42:40.967Z,6.65
2022-08-17T15:45:12.407Z,2.70
2022-08-17T15:47:39.364Z,2.40
2022-08-17T15:50:07.865Z,2.25
2022-08-17T15:52:40.333Z,2.65
2022-08-17T15:55:10.782Z,2.20
2022-08-17T15:57:37.589Z,2.45
2022-08-17T16:00:06.949Z,2.80
2022-08-17T16:03:45.302Z,2.63
2022-08-17T16:05:28.158Z,2.88
2022-08-17T16:07:56.673Z,2.75
2022-08-17T16:10:34.575Z,2.80
2022-08-17T16:13:02.510Z,3.00
2022-08-17T16:15:31.261Z,2.95
2022-08-17T16:17:57.871Z,2.88
2022-08-17T16:20:25.929Z,2.72
2022-08-17T16:22:52.679Z,2.60
2022-08-17T16:25:49.227Z,2.67
2022-08-17T16:28:11.390Z,2.50
2022-08-17T16:30:38.607Z,2.65
2022-08-17T16:33:06.031Z,2.72
2022-08-17T16:35:32.654Z,2.17
2022-08-17T16:37:59.220Z,2.47
2022-08-17T16:40:29.629Z,2.67
2022-08-17T16:42:57.950Z,2.15
2022-08-17T16:45:39.877Z,2.35
2022-08-17T16:48:07.511Z,1.92
2022-08-17T16:50:34.390Z,1.92
2022-08-17T16:53:08.369Z,1.80
2022-08-17T16:55:35.861Z,2.03
2022-08-17T16:58:06.790Z,1.90
2022-08-17T17:00:34.482Z,2.45
2022-08-17T17:03:19.638Z,1.98
2022-08-17T17:06:07.577Z,2.20
2022-08-17T17:08:43.657Z,1.98
2022-08-17T17:11:20.843Z,2.38
2022-08-17T17:14:01.734Z,1.90
2022-08-17T17:17:01.600Z,2.70
2022-08-17T17:19:38.012Z,2.40
2022-08-17T17:22:16.577Z,2.58
2022-08-17T17:24:51.637Z,2.50
2022-08-17T17:27:39.263Z,2.72
2022-08-17T17:30:14.669Z,2.50
2022-08-17T17:32:45.736Z,2.60
2022-08-17T17:35:33.838Z,2.78
2022-08-17T17:38:07.650Z,2.65
2022-08-17T17:40:41.732Z,2.20
2022-08-17T17:43:36.861Z,2.60
2022-08-17T17:46:27.321Z,2.60
2022-08-17T17:48:58.410Z,2.42
2022-08-17T17:52:07.159Z,2.00
2022-08-17T17:55:14.883Z,2.83
2022-08-17T17:57:55.709Z,2.60
2022-08-17T18:00:25.618Z,2.20
2022-08-17T18:03:00.969Z,2.75
2022-08-17T18:05:37.134Z,2.72
2022-08-17T18:08:32.047Z,2.65
2022-08-17T18:11:37.070Z,2.70
2022-08-17T18:14:30.788Z,2.35
2022-08-17T18:16:59.952Z,2.72
2022-08-17T18:19:29.349Z,2.78
2022-08-17T18:22:14.507Z,2.45
2022-08-17T18:24:44.688Z,2.42
2022-08-17T18:27:32.926Z,2.88
2022-08-17T18:30:08.765Z,2.55
2022-08-17T18:32:38.492Z,3.22
2022-08-17T18:35:08.075Z,2.85
2022-08-17T18:37:48.791Z,3.08
2022-08-17T18:40:18.425Z,2.65
2022-08-17T18:42:57.218Z,2.92
2022-08-17T18:45:35.498Z,3.00
2022-08-17T18:48:02.586Z,2.90
2022-08-17T18:50:39.601Z,3.25
2022-08-17T18:53:26.687Z,3.42
2022-08-17T18:56:17.692Z,3.08
2022-08-17T18:58:54.717Z,3.25
2022-08-17T19:01:21.623Z,3.53
2022-08-17T19:04:28.056Z,3.38
2022-08-17T19:07:19.081Z,3.20
2022-08-17T19:09:50.902Z,2.92
2022-08-17T19:12:28.824Z,2.88
2022-08-17T19:14:57.524Z,3.60
2022-08-17T19:17:30.945Z,3.20
2022-08-17T19:20:12.508Z,3.25
2022-08-17T19:22:52.700Z,3.90
2022-08-17T19:25:27.093Z,3.28
2022-08-17T19:28:04.002Z,3.08
2022-08-17T19:30:33.126Z,3.63
2022-08-17T19:33:02.060Z,3.55
2022-08-17T19:35:45.934Z,3.30
2022-08-17T19:38:26.556Z,3.13
2022-08-17T19:41:05.481Z,3.78
2022-08-17T19:43:59.386Z,3.83
2022-08-17T19:46:31.659Z,3.53
2022-08-17T19:49:12.068Z,3.45
2022-08-17T19:51:47.403Z,4.00
2022-08-17T19:54:31.019Z,3.85
2022-08-17T19:57:27.288Z,3.53
2022-08-17T20:00:01.831Z,3.97
2022-08-17T20:02:41.719Z,4.03
2022-08-17T20:05:15.105Z,3.47
2022-08-17T20:07:56.588Z,4.15
2022-08-17T20:10:54.420Z,4.15
2022-08-17T20:13:33.534Z,3.97
2022-08-17T20:16:01.440Z,4.03
2022-08-17T20:18:37.850Z,3.70
2022-08-17T20:21:19.703Z,3.70
2022-08-17T20:23:58.481Z,3.95
2022-08-17T20:26:33.768Z,4.05
2022-08-17T20:29:12.144Z,4.00
2022-08-17T20:31:58.899Z,3.67
2022-08-17T20:34:25.399Z,3.83
2022-08-17T20:37:08.849Z,4.28
2022-08-17T20:39:49.471Z,4.43
2022-08-17T20:42:21.962Z,4.40
2022-08-17T20:44:51.673Z,4.15
2022-08-17T20:47:26.904Z,4.22
2022-08-17T20:50:02.868Z,4.57
2022-08-17T20:52:35.577Z,4.00
2022-08-17T20:55:04.485Z,4.30
2022-08-17T20:57:31.275Z,4.30
2022-08-17T21:00:15.332Z,4.15
2022-08-17T21:02:50.470Z,4.20
2022-08-17T21:05:34.567Z,4.28
2022-08-17T21:08:13.891Z,4.47
2022-08-17T21:10:44.425Z,4.13
2022-08-17T21:13:13.307Z,4.60
2022-08-17T21:15:51.668Z,4.47
2022-08-17T21:18:39.209Z,4.47
2022-08-17T21:21:06.494Z,4.43
2022-08-17T21:23:56.010Z,4.35
2022-08-17T21:26:38.991Z,4.68
2022-08-17T21:29:32.592Z,4.20
2022-08-17T21:32:03.140Z,4.07
2022-08-17T21:34:39.427Z,4.55
2022-08-17T21:37:29.361Z,4.60
2022-08-17T21:40:10.527Z,4.60
2022-08-17T21:42:44.527Z,3.97
2022-08-17T21:45:21.062Z,4.75
2022-08-17T21:47:50.663Z,4.68
2022-08-17T21:50:22.526Z,4.85
2022-08-17T21:52:54.021Z,4.78
2022-08-17T21:55:29.918Z,4.35
2022-08-17T21:58:13.635Z,4.68
2022-08-17T22:00:43.240Z,4.75
2022-08-17T22:03:23.503Z,4.20
2022-08-17T22:05:51.320Z,5.00
2022-08-17T22:08:21.014Z,4.90
2022-08-17T22:10:50.529Z,4.55
2022-08-17T22:13:17.614Z,4.35
2022-08-17T22:15:47.671Z,5.00
2022-08-17T22:18:21.523Z,4.97
2022-08-17T22:20:54.768Z,4.47
2022-08-17T22:23:58.860Z,4.65
2022-08-17T22:26:47.105Z,5.00
2022-08-17T22:29:44.713Z,5.15
2022-08-17T22:32:11.321Z,5.10
2022-08-17T22:34:38.976Z,4.90
2022-08-17T22:37:28.969Z,4.55
2022-08-17T22:39:59.561Z,4.88
2022-08-17T22:42:28.483Z,5.05
2022-08-17T22:44:55.074Z,4.43
2022-08-17T22:47:38.634Z,4.45
2022-08-17T22:50:14.083Z,5.03
2022-08-17T22:53:02.934Z,4.22
2022-08-17T22:55:50.620Z,4.72
2022-08-17T22:58:42.536Z,4.80
2022-08-17T23:01:32.290Z,4.32
2022-08-17T23:04:08.269Z,4.80
2022-08-17T23:06:36.764Z,5.30
2022-08-17T23:09:05.718Z,4.72
2022-08-17T23:11:48.728Z,5.13
2022-08-17T23:14:19.114Z,4.80
2022-08-17T23:16:46.661Z,4.80
2022-08-17T23:19:16.021Z,5.47
2022-08-17T23:21:46.679Z,5.10
2022-08-17T23:24:22.612Z,5.15
2022-08-17T23:26:49.126Z,4.88
2022-08-17T23:29:15.905Z,5.30
2022-08-17T23:31:42.756Z,5.65
2022-08-17T23:34:14.659Z,4.80
2022-08-17T23:36:41.505Z,5.03
2022-08-17T23:39:08.157Z,4.85
2022-08-17T23:41:39.871Z,5.40
2022-08-17T23:44:07.148Z,4.90
2022-08-17T23:46:34.712Z,4.40
2022-08-17T23:49:01.397Z,4.78
2022-08-17T23:51:31.651Z,4.20
2022-08-17T23:54:07.736Z,4.95
2022-08-17T23:56:40.095Z,4.90
2022-08-17T23:59:06.604Z,4.72
